sensor_id;sensor_type;location;lat;lon;timestamp;pressure;altitude;pressure_sealevel;temperature;humidity
41078;BME280;26823;42.662;23.352;2023-07-22T00:00:52;94742.34;;;25.28;49.39
41078;BME280;26823;42.662;23.352;2023-07-22T00:03:17;94736.94;;;25.08;49.59
41078;BME280;26823;42.662;23.352;2023-07-22T00:05:42;94750.47;;;25.13;50.68
41078;BME280;26823;42.662;23.352;2023-07-22T00:08:09;94756.78;;;25.14;50.71
41078;BME280;26823;42.662;23.352;2023-07-22T00:10:34;94738.00;;;25.00;50.38
41078;BME280;26823;42.662;23.352;2023-07-22T00:12:59;94768.31;;;25.19;50.41
41078;BME280;26823;42.662;23.352;2023-07-22T00:15:25;94772.63;;;25.17;50.24
41078;BME280;26823;42.662;23.352;2023-07-22T00:17:51;94770.25;;;25.15;50.53
41078;BME280;26823;42.662;23.352;2023-07-22T00:20:16;94779.38;;;25.19;50.58
41078;BME280;26823;42.662;23.352;2023-07-22T00:22:42;94766.53;;;25.04;50.85
41078;BME280;26823;42.662;23.352;2023-07-22T00:25:10;94772.06;;;25.04;51.26
41078;BME280;26823;42.662;23.352;2023-07-22T00:27:39;94684.69;;;24.49;51.45
41078;BME280;26823;42.662;23.352;2023-07-22T00:30:06;94743.94;;;24.71;51.74
41078;BME280;26823;42.662;23.352;2023-07-22T00:32:32;94767.63;;;24.72;52.42
41078;BME280;26823;42.662;23.352;2023-07-22T00:34:58;94743.28;;;24.58;52.85
41078;BME280;26823;42.662;23.352;2023-07-22T00:37:23;94776.34;;;24.74;53.41
41078;BME280;26823;42.662;23.352;2023-07-22T00:39:48;94766.22;;;24.59;53.44
41078;BME280;26823;42.662;23.352;2023-07-22T00:42:14;94765.06;;;24.60;53.85
41078;BME280;26823;42.662;23.352;2023-07-22T00:44:39;94772.97;;;24.62;53.97
41078;BME280;26823;42.662;23.352;2023-07-22T00:47:05;94757.84;;;24.55;53.88
41078;BME280;26823;42.662;23.352;2023-07-22T00:49:31;94779.38;;;24.66;54.43
41078;BME280;26823;42.662;23.352;2023-07-22T00:52:00;94766.59;;;24.57;54.53
41078;BME280;26823;42.662;23.352;2023-07-22T00:54:27;94768.84;;;24.52;54.47
41078;BME280;26823;42.662;23.352;2023-07-22T00:56:54;94784.69;;;24.55;54.41
41078;BME280;26823;42.662;23.352;2023-07-22T00:59:20;94787.34;;;24.48;55.33
41078;BME280;26823;42.662;23.352;2023-07-22T01:01:46;94786.19;;;24.49;55.59
41078;BME280;26823;42.662;23.352;2023-07-22T01:04:13;94788.50;;;24.47;55.28
41078;BME280;26823;42.662;23.352;2023-07-22T01:06:40;94780.34;;;24.31;55.45
41078;BME280;26823;42.662;23.352;2023-07-22T01:09:06;94771.50;;;24.21;55.38
41078;BME280;26823;42.662;23.352;2023-07-22T01:11:32;94773.16;;;24.26;56.04
41078;BME280;26823;42.662;23.352;2023-07-22T01:13:57;94766.03;;;24.25;56.26
41078;BME280;26823;42.662;23.352;2023-07-22T01:16:26;94746.94;;;24.16;56.65
41078;BME280;26823;42.662;23.352;2023-07-22T01:18:53;94755.38;;;24.04;55.96
41078;BME280;26823;42.662;23.352;2023-07-22T01:21:19;94762.97;;;24.07;56.86
41078;BME280;26823;42.662;23.352;2023-07-22T01:23:46;94764.13;;;24.06;57.36
41078;BME280;26823;42.662;23.352;2023-07-22T01:26:12;94767.75;;;24.10;57.00
41078;BME280;26823;42.662;23.352;2023-07-22T01:28:38;94758.78;;;24.17;57.20
41078;BME280;26823;42.662;23.352;2023-07-22T01:31:03;94761.84;;;24.12;57.40
41078;BME280;26823;42.662;23.352;2023-07-22T01:33:30;94755.91;;;24.09;57.35
41078;BME280;26823;42.662;23.352;2023-07-22T01:35:56;94739.97;;;24.03;57.32
41078;BME280;26823;42.662;23.352;2023-07-22T01:38:29;94745.50;;;24.03;57.47
41078;BME280;26823;42.662;23.352;2023-07-22T01:40:55;94746.56;;;23.94;57.60
41078;BME280;26823;42.662;23.352;2023-07-22T01:43:20;94744.56;;;23.95;58.29
41078;BME280;26823;42.662;23.352;2023-07-22T01:45:46;94733.81;;;23.90;58.24
41078;BME280;26823;42.662;23.352;2023-07-22T01:48:11;94731.44;;;23.69;59.54
41078;BME280;26823;42.662;23.352;2023-07-22T01:50:37;94736.78;;;23.81;59.18
41078;BME280;26823;42.662;23.352;2023-07-22T01:53:02;94723.00;;;23.81;59.01
41078;BME280;26823;42.662;23.352;2023-07-22T01:55:29;94729.91;;;23.91;59.40
41078;BME280;26823;42.662;23.352;2023-07-22T01:57:54;94722.41;;;23.91;60.01
41078;BME280;26823;42.662;23.352;2023-07-22T02:00:20;94722.94;;;23.97;59.74
41078;BME280;26823;42.662;23.352;2023-07-22T02:02:46;94733.22;;;24.00;59.74
41078;BME280;26823;42.662;23.352;2023-07-22T02:05:11;94725.09;;;23.88;60.29
41078;BME280;26823;42.662;23.352;2023-07-22T02:07:37;94728.38;;;23.93;60.14
41078;BME280;26823;42.662;23.352;2023-07-22T02:10:02;94726.34;;;23.90;60.63
41078;BME280;26823;42.662;23.352;2023-07-22T02:12:28;94732.38;;;23.96;60.80
41078;BME280;26823;42.662;23.352;2023-07-22T02:14:53;94726.91;;;24.00;60.87
41078;BME280;26823;42.662;23.352;2023-07-22T02:17:19;94723.63;;;23.94;61.22
41078;BME280;26823;42.662;23.352;2023-07-22T02:19:51;94730.75;;;23.95;61.22
41078;BME280;26823;42.662;23.352;2023-07-22T02:22:16;94745.94;;;24.05;61.44
41078;BME280;26823;42.662;23.352;2023-07-22T02:24:43;94740.41;;;24.05;61.57
41078;BME280;26823;42.662;23.352;2023-07-22T02:27:08;94724.72;;;23.89;61.81
41078;BME280;26823;42.662;23.352;2023-07-22T02:29:36;94733.28;;;24.04;61.56
41078;BME280;26823;42.662;23.352;2023-07-22T02:32:01;94742.63;;;23.96;62.10
41078;BME280;26823;42.662;23.352;2023-07-22T02:34:27;94749.88;;;24.04;62.48
41078;BME280;26823;42.662;23.352;2023-07-22T02:36:53;94750.25;;;24.02;62.61
41078;BME280;26823;42.662;23.352;2023-07-22T02:39:18;94753.31;;;23.97;62.57
41078;BME280;26823;42.662;23.352;2023-07-22T02:41:44;94745.81;;;23.98;62.55
41078;BME280;26823;42.662;23.352;2023-07-22T02:44:09;94747.84;;;24.01;62.66
41078;BME280;26823;42.662;23.352;2023-07-22T02:46:34;94751.31;;;23.98;62.56
41078;BME280;26823;42.662;23.352;2023-07-22T02:49:00;94746.63;;;23.98;62.92
41078;BME280;26823;42.662;23.352;2023-07-22T02:51:25;94751.78;;;24.00;62.52
41078;BME280;26823;42.662;23.352;2023-07-22T02:53:51;94736.22;;;23.91;62.67
41078;BME280;26823;42.662;23.352;2023-07-22T02:56:16;94738.03;;;23.84;63.14
41078;BME280;26823;42.662;23.352;2023-07-22T02:58:41;94751.50;;;23.85;63.36
41078;BME280;26823;42.662;23.352;2023-07-22T03:01:07;94741.59;;;23.84;63.28
41078;BME280;26823;42.662;23.352;2023-07-22T03:03:34;94747.13;;;23.84;63.66
41078;BME280;26823;42.662;23.352;2023-07-22T03:06:01;94756.94;;;23.82;64.00
41078;BME280;26823;42.662;23.352;2023-07-22T03:08:27;94749.28;;;23.75;63.97
41078;BME280;26823;42.662;23.352;2023-07-22T03:10:52;94754.19;;;23.82;63.86
41078;BME280;26823;42.662;23.352;2023-07-22T03:13:18;94745.31;;;23.72;64.16
41078;BME280;26823;42.662;23.352;2023-07-22T03:15:44;94756.13;;;23.81;63.80
41078;BME280;26823;42.662;23.352;2023-07-22T03:18:09;94739.78;;;23.72;63.26
41078;BME280;26823;42.662;23.352;2023-07-22T03:20:36;94747.72;;;23.74;63.54
41078;BME280;26823;42.662;23.352;2023-07-22T03:23:02;94748.59;;;23.78;63.55
41078;BME280;26823;42.662;23.352;2023-07-22T03:25:28;94754.03;;;23.74;63.83
41078;BME280;26823;42.662;23.352;2023-07-22T03:27:53;94756.78;;;23.74;64.21
41078;BME280;26823;42.662;23.352;2023-07-22T03:30:21;94762.25;;;23.71;63.91
41078;BME280;26823;42.662;23.352;2023-07-22T03:32:47;94767.75;;;23.71;64.22
41078;BME280;26823;42.662;23.352;2023-07-22T03:35:15;94766.81;;;23.63;63.93
41078;BME280;26823;42.662;23.352;2023-07-22T03:37:41;94767.59;;;23.64;63.74
41078;BME280;26823;42.662;23.352;2023-07-22T03:40:07;94760.81;;;23.57;64.90
41078;BME280;26823;42.662;23.352;2023-07-22T03:42:36;94767.56;;;23.60;64.51
41078;BME280;26823;42.662;23.352;2023-07-22T03:45:02;94783.22;;;23.56;64.44
41078;BME280;26823;42.662;23.352;2023-07-22T03:47:27;94775.69;;;23.53;64.30
41078;BME280;26823;42.662;23.352;2023-07-22T03:49:53;94782.38;;;23.52;63.91
41078;BME280;26823;42.662;23.352;2023-07-22T03:52:18;94794.19;;;23.52;64.58
41078;BME280;26823;42.662;23.352;2023-07-22T03:54:44;94792.09;;;23.45;64.78
41078;BME280;26823;42.662;23.352;2023-07-22T03:57:10;94795.06;;;23.37;64.90
41078;BME280;26823;42.662;23.352;2023-07-22T03:59:35;94794.97;;;23.33;65.09
41078;BME280;26823;42.662;23.352;2023-07-22T04:02:01;94798.09;;;23.32;65.32
41078;BME280;26823;42.662;23.352;2023-07-22T04:04:27;94798.31;;;23.23;65.35
41078;BME280;26823;42.662;23.352;2023-07-22T04:06:52;94809.94;;;23.32;64.90
41078;BME280;26823;42.662;23.352;2023-07-22T04:09:18;94806.47;;;23.35;64.40
41078;BME280;26823;42.662;23.352;2023-07-22T04:11:43;94798.25;;;23.39;64.85
41078;BME280;26823;42.662;23.352;2023-07-22T04:14:08;94810.53;;;23.41;64.65
41078;BME280;26823;42.662;23.352;2023-07-22T04:16:34;94803.78;;;23.39;64.25
41078;BME280;26823;42.662;23.352;2023-07-22T04:18:59;94786.84;;;23.40;64.68
41078;BME280;26823;42.662;23.352;2023-07-22T04:21:24;94804.16;;;23.57;64.59
41078;BME280;26823;42.662;23.352;2023-07-22T04:23:50;94809.69;;;23.57;64.29
41078;BME280;26823;42.662;23.352;2023-07-22T04:26:16;94803.44;;;23.60;64.64
41078;BME280;26823;42.662;23.352;2023-07-22T04:28:41;94821.94;;;23.59;64.80
41078;BME280;26823;42.662;23.352;2023-07-22T04:31:06;94812.88;;;23.59;64.84
41078;BME280;26823;42.662;23.352;2023-07-22T04:33:32;94815.84;;;23.50;64.92
41078;BME280;26823;42.662;23.352;2023-07-22T04:35:58;94822.59;;;23.53;64.44
41078;BME280;26823;42.662;23.352;2023-07-22T04:38:24;94818.25;;;23.52;63.86
41078;BME280;26823;42.662;23.352;2023-07-22T04:40:50;94809.97;;;23.52;64.38
41078;BME280;26823;42.662;23.352;2023-07-22T04:43:15;94822.41;;;23.61;64.65
41078;BME280;26823;42.662;23.352;2023-07-22T04:45:41;94827.63;;;23.67;64.47
41078;BME280;26823;42.662;23.352;2023-07-22T04:48:06;94824.94;;;23.70;65.32
41078;BME280;26823;42.662;23.352;2023-07-22T04:50:32;94833.72;;;23.76;64.60
41078;BME280;26823;42.662;23.352;2023-07-22T04:52:58;94831.13;;;23.83;63.72
41078;BME280;26823;42.662;23.352;2023-07-22T04:55:23;94796.53;;;23.70;64.17
41078;BME280;26823;42.662;23.352;2023-07-22T04:57:49;94830.13;;;23.91;64.07
41078;BME280;26823;42.662;23.352;2023-07-22T05:00:17;94831.34;;;23.94;63.90
41078;BME280;26823;42.662;23.352;2023-07-22T05:02:44;94827.06;;;23.97;64.54
41078;BME280;26823;42.662;23.352;2023-07-22T05:05:11;94828.66;;;23.98;64.06
41078;BME280;26823;42.662;23.352;2023-07-22T05:07:36;94836.25;;;24.01;63.41
41078;BME280;26823;42.662;23.352;2023-07-22T05:10:02;94807.94;;;23.88;63.76
41078;BME280;26823;42.662;23.352;2023-07-22T05:12:27;94836.88;;;24.14;63.91
41078;BME280;26823;42.662;23.352;2023-07-22T05:14:52;94847.19;;;24.17;63.99
41078;BME280;26823;42.662;23.352;2023-07-22T05:17:18;94833.50;;;24.24;64.42
41078;BME280;26823;42.662;23.352;2023-07-22T05:19:43;94837.94;;;24.29;64.34
41078;BME280;26823;42.662;23.352;2023-07-22T05:22:08;94840.34;;;24.30;64.54
41078;BME280;26823;42.662;23.352;2023-07-22T05:24:34;94844.47;;;24.40;64.48
41078;BME280;26823;42.662;23.352;2023-07-22T05:26:59;94845.25;;;24.40;64.70
41078;BME280;26823;42.662;23.352;2023-07-22T05:29:24;94833.75;;;24.38;64.32
41078;BME280;26823;42.662;23.352;2023-07-22T05:31:50;94839.13;;;24.51;64.37
41078;BME280;26823;42.662;23.352;2023-07-22T05:34:15;94851.47;;;24.57;63.86
41078;BME280;26823;42.662;23.352;2023-07-22T05:36:41;94851.16;;;24.62;63.80
41078;BME280;26823;42.662;23.352;2023-07-22T05:39:13;94843.63;;;24.59;63.68
41078;BME280;26823;42.662;23.352;2023-07-22T05:41:38;94846.75;;;24.57;63.43
41078;BME280;26823;42.662;23.352;2023-07-22T05:44:04;94849.03;;;24.75;63.52
41078;BME280;26823;42.662;23.352;2023-07-22T05:46:29;94855.50;;;24.83;62.48
41078;BME280;26823;42.662;23.352;2023-07-22T05:48:54;94848.91;;;24.91;62.72
41078;BME280;26823;42.662;23.352;2023-07-22T05:51:20;94845.00;;;24.92;61.25
41078;BME280;26823;42.662;23.352;2023-07-22T05:53:45;94832.25;;;24.87;62.19
41078;BME280;26823;42.662;23.352;2023-07-22T05:56:11;94847.88;;;24.99;61.93
41078;BME280;26823;42.662;23.352;2023-07-22T05:58:36;94838.31;;;24.97;62.46
41078;BME280;26823;42.662;23.352;2023-07-22T06:01:02;94847.59;;;25.08;61.97
41078;BME280;26823;42.662;23.352;2023-07-22T06:03:27;94847.34;;;25.17;62.50
41078;BME280;26823;42.662;23.352;2023-07-22T06:05:53;94847.66;;;25.12;61.49
41078;BME280;26823;42.662;23.352;2023-07-22T06:08:18;94866.34;;;25.18;61.56
41078;BME280;26823;42.662;23.352;2023-07-22T06:10:44;94866.75;;;25.20;60.61
41078;BME280;26823;42.662;23.352;2023-07-22T06:13:10;94867.25;;;25.26;60.09
41078;BME280;26823;42.662;23.352;2023-07-22T06:15:35;94881.72;;;25.39;60.77
41078;BME280;26823;42.662;23.352;2023-07-22T06:18:01;94875.00;;;25.40;60.55
41078;BME280;26823;42.662;23.352;2023-07-22T06:20:27;94880.22;;;25.45;60.30
41078;BME280;26823;42.662;23.352;2023-07-22T06:22:52;94882.28;;;25.52;58.99
41078;BME280;26823;42.662;23.352;2023-07-22T06:25:18;94884.03;;;25.64;58.41
41078;BME280;26823;42.662;23.352;2023-07-22T06:27:43;94886.19;;;25.78;58.09
41078;BME280;26823;42.662;23.352;2023-07-22T06:30:09;94891.91;;;25.88;59.00
41078;BME280;26823;42.662;23.352;2023-07-22T06:32:37;94901.09;;;25.96;59.17
41078;BME280;26823;42.662;23.352;2023-07-22T06:35:02;94890.78;;;25.93;58.14
41078;BME280;26823;42.662;23.352;2023-07-22T06:37:28;94903.16;;;26.03;58.75
41078;BME280;26823;42.662;23.352;2023-07-22T06:39:53;94902.50;;;26.10;57.29
41078;BME280;26823;42.662;23.352;2023-07-22T06:42:19;94897.84;;;26.17;56.84
41078;BME280;26823;42.662;23.352;2023-07-22T06:44:44;94894.72;;;26.23;58.12
41078;BME280;26823;42.662;23.352;2023-07-22T06:47:09;94904.38;;;26.36;58.51
41078;BME280;26823;42.662;23.352;2023-07-22T06:49:35;94881.25;;;26.21;57.82
41078;BME280;26823;42.662;23.352;2023-07-22T06:52:00;94894.50;;;26.38;57.94
41078;BME280;26823;42.662;23.352;2023-07-22T06:54:27;94899.34;;;26.45;58.04
41078;BME280;26823;42.662;23.352;2023-07-22T06:56:53;94879.00;;;26.34;56.70
41078;BME280;26823;42.662;23.352;2023-07-22T06:59:18;94891.94;;;26.57;57.46
41078;BME280;26823;42.662;23.352;2023-07-22T07:01:43;94892.41;;;26.66;57.37
41078;BME280;26823;42.662;23.352;2023-07-22T07:04:09;94879.75;;;26.68;58.17
41078;BME280;26823;42.662;23.352;2023-07-22T07:06:35;94876.47;;;26.56;58.62
41078;BME280;26823;42.662;23.352;2023-07-22T07:09:01;94882.53;;;26.68;59.34
41078;BME280;26823;42.662;23.352;2023-07-22T07:11:28;94885.47;;;26.83;56.80
41078;BME280;26823;42.662;23.352;2023-07-22T07:13:53;94881.63;;;26.95;56.32
41078;BME280;26823;42.662;23.352;2023-07-22T07:18:48;94875.38;;;27.05;57.88
41078;BME280;26823;42.662;23.352;2023-07-22T07:21:14;94882.94;;;27.12;57.82
41078;BME280;26823;42.662;23.352;2023-07-22T07:23:39;94878.81;;;26.91;57.01
41078;BME280;26823;42.662;23.352;2023-07-22T07:26:04;94874.59;;;27.08;56.70
41078;BME280;26823;42.662;23.352;2023-07-22T07:28:30;94868.16;;;26.97;56.38
41078;BME280;26823;42.662;23.352;2023-07-22T07:30:55;94866.25;;;27.05;57.39
41078;BME280;26823;42.662;23.352;2023-07-22T07:33:20;94868.69;;;27.10;56.80
41078;BME280;26823;42.662;23.352;2023-07-22T07:35:46;94865.50;;;27.11;56.58
41078;BME280;26823;42.662;23.352;2023-07-22T07:38:12;94871.97;;;27.26;55.08
41078;BME280;26823;42.662;23.352;2023-07-22T07:40:37;94866.16;;;27.42;55.30
41078;BME280;26823;42.662;23.352;2023-07-22T07:43:03;94866.19;;;27.49;54.21
41078;BME280;26823;42.662;23.352;2023-07-22T07:45:28;94862.31;;;27.58;54.20
41078;BME280;26823;42.662;23.352;2023-07-22T07:47:53;94853.59;;;27.63;53.35
41078;BME280;26823;42.662;23.352;2023-07-22T07:50:19;94867.47;;;27.63;52.13
41078;BME280;26823;42.662;23.352;2023-07-22T07:52:44;94861.75;;;27.38;53.64
41078;BME280;26823;42.662;23.352;2023-07-22T07:55:10;94859.50;;;27.54;53.37
41078;BME280;26823;42.662;23.352;2023-07-22T07:57:42;94862.34;;;27.69;52.57
41078;BME280;26823;42.662;23.352;2023-07-22T08:00:07;94860.41;;;27.80;52.02
41078;BME280;26823;42.662;23.352;2023-07-22T08:02:34;94857.72;;;27.91;51.59
41078;BME280;26823;42.662;23.352;2023-07-22T08:05:00;94853.31;;;27.86;51.31
41078;BME280;26823;42.662;23.352;2023-07-22T08:07:26;94852.56;;;27.96;51.86
41078;BME280;26823;42.662;23.352;2023-07-22T08:09:51;94846.28;;;28.07;51.84
41078;BME280;26823;42.662;23.352;2023-07-22T08:12:18;94852.66;;;28.14;50.84
41078;BME280;26823;42.662;23.352;2023-07-22T08:14:43;94855.09;;;28.30;50.73
41078;BME280;26823;42.662;23.352;2023-07-22T08:17:09;94850.38;;;28.45;50.85
41078;BME280;26823;42.662;23.352;2023-07-22T08:19:34;94847.56;;;28.38;51.78
41078;BME280;26823;42.662;23.352;2023-07-22T08:22:00;94838.00;;;28.28;50.79
41078;BME280;26823;42.662;23.352;2023-07-22T08:24:25;94848.34;;;28.39;50.46
41078;BME280;26823;42.662;23.352;2023-07-22T08:26:51;94833.66;;;28.38;50.04
41078;BME280;26823;42.662;23.352;2023-07-22T08:29:16;94840.44;;;28.48;49.58
41078;BME280;26823;42.662;23.352;2023-07-22T08:31:41;94840.47;;;28.66;49.33
41078;BME280;26823;42.662;23.352;2023-07-22T08:34:07;94843.72;;;28.90;48.39
41078;BME280;26823;42.662;23.352;2023-07-22T08:36:32;94843.72;;;29.04;49.64
41078;BME280;26823;42.662;23.352;2023-07-22T08:38:58;94821.44;;;29.04;49.01
41078;BME280;26823;42.662;23.352;2023-07-22T08:41:24;94837.75;;;28.95;47.85
41078;BME280;26823;42.662;23.352;2023-07-22T08:43:51;94822.63;;;28.85;48.30
41078;BME280;26823;42.662;23.352;2023-07-22T08:46:19;94801.97;;;28.90;48.21
41078;BME280;26823;42.662;23.352;2023-07-22T08:48:46;94818.66;;;29.01;48.23
41078;BME280;26823;42.662;23.352;2023-07-22T08:51:16;94821.84;;;29.03;47.88
41078;BME280;26823;42.662;23.352;2023-07-22T08:53:46;94806.75;;;29.07;48.97
41078;BME280;26823;42.662;23.352;2023-07-22T08:56:12;94797.97;;;29.09;47.38
41078;BME280;26823;42.662;23.352;2023-07-22T08:58:38;94794.41;;;29.05;47.12
41078;BME280;26823;42.662;23.352;2023-07-22T09:01:05;94792.78;;;29.25;47.56
41078;BME280;26823;42.662;23.352;2023-07-22T09:03:32;94795.97;;;29.42;46.90
41078;BME280;26823;42.662;23.352;2023-07-22T09:05:58;94793.53;;;29.66;45.96
41078;BME280;26823;42.662;23.352;2023-07-22T09:08:23;94789.50;;;29.88;45.82
41078;BME280;26823;42.662;23.352;2023-07-22T09:10:49;94798.56;;;30.03;45.08
41078;BME280;26823;42.662;23.352;2023-07-22T09:13:15;94796.94;;;30.09;45.01
41078;BME280;26823;42.662;23.352;2023-07-22T09:15:49;94794.09;;;30.24;44.90
41078;BME280;26823;42.662;23.352;2023-07-22T09:18:14;94786.94;;;30.19;44.32
41078;BME280;26823;42.662;23.352;2023-07-22T09:20:40;94797.56;;;30.39;44.15
41078;BME280;26823;42.662;23.352;2023-07-22T09:23:07;94802.75;;;30.44;44.68
41078;BME280;26823;42.662;23.352;2023-07-22T09:25:33;94788.31;;;30.60;43.50
41078;BME280;26823;42.662;23.352;2023-07-22T09:27:59;94789.78;;;30.75;43.30
41078;BME280;26823;42.662;23.352;2023-07-22T09:30:27;94787.69;;;30.87;42.63
41078;BME280;26823;42.662;23.352;2023-07-22T09:32:54;94786.06;;;30.93;42.52
41078;BME280;26823;42.662;23.352;2023-07-22T09:35:21;94796.41;;;30.96;41.16
41078;BME280;26823;42.662;23.352;2023-07-22T09:37:46;94772.72;;;30.66;42.22
41078;BME280;26823;42.662;23.352;2023-07-22T09:42:52;94788.97;;;30.79;42.94
41078;BME280;26823;42.662;23.352;2023-07-22T09:45:19;94787.00;;;30.75;42.62
41078;BME280;26823;42.662;23.352;2023-07-22T09:47:47;94782.84;;;30.95;42.78
41078;BME280;26823;42.662;23.352;2023-07-22T09:50:15;94768.84;;;31.02;43.18
41078;BME280;26823;42.662;23.352;2023-07-22T09:52:44;94772.75;;;31.15;42.93
41078;BME280;26823;42.662;23.352;2023-07-22T09:55:10;94768.63;;;31.27;41.82
41078;BME280;26823;42.662;23.352;2023-07-22T09:57:36;94758.31;;;31.20;41.56
41078;BME280;26823;42.662;23.352;2023-07-22T10:00:03;94771.28;;;31.42;40.93
41078;BME280;26823;42.662;23.352;2023-07-22T10:02:30;94755.34;;;31.38;41.16
41078;BME280;26823;42.662;23.352;2023-07-22T10:04:58;94757.25;;;31.45;41.28
41078;BME280;26823;42.662;23.352;2023-07-22T10:07:25;94764.81;;;31.48;41.12
41078;BME280;26823;42.662;23.352;2023-07-22T10:09:52;94759.72;;;31.39;40.64
41078;BME280;26823;42.662;23.352;2023-07-22T10:12:19;94749.75;;;31.38;40.72
41078;BME280;26823;42.662;23.352;2023-07-22T10:14:45;94756.25;;;31.28;40.23
41078;BME280;26823;42.662;23.352;2023-07-22T10:17:12;94760.63;;;31.29;40.92
41078;BME280;26823;42.662;23.352;2023-07-22T10:19:44;94757.75;;;31.36;40.21
41078;BME280;26823;42.662;23.352;2023-07-22T10:22:09;94751.72;;;31.42;39.38
41078;BME280;26823;42.662;23.352;2023-07-22T10:24:36;94753.59;;;31.52;40.56
41078;BME280;26823;42.662;23.352;2023-07-22T10:27:01;94753.50;;;31.59;39.06
41078;BME280;26823;42.662;23.352;2023-07-22T10:29:28;94751.88;;;31.62;39.91
41078;BME280;26823;42.662;23.352;2023-07-22T10:31:53;94756.13;;;31.77;39.46
41078;BME280;26823;42.662;23.352;2023-07-22T10:34:23;94746.06;;;31.83;38.88
41078;BME280;26823;42.662;23.352;2023-07-22T10:36:49;94744.84;;;31.84;39.15
41078;BME280;26823;42.662;23.352;2023-07-22T10:39:28;94732.31;;;31.96;39.33
41078;BME280;26823;42.662;23.352;2023-07-22T10:42:00;94736.94;;;31.79;39.13
41078;BME280;26823;42.662;23.352;2023-07-22T10:44:26;94743.31;;;31.80;39.57
41078;BME280;26823;42.662;23.352;2023-07-22T10:46:58;94726.91;;;31.82;38.98
41078;BME280;26823;42.662;23.352;2023-07-22T10:49:24;94734.78;;;31.91;38.75
41078;BME280;26823;42.662;23.352;2023-07-22T10:51:52;94739.25;;;31.84;37.55
41078;BME280;26823;42.662;23.352;2023-07-22T10:54:32;94728.38;;;31.94;37.04
41078;BME280;26823;42.662;23.352;2023-07-22T10:57:23;94738.00;;;31.89;35.70
41078;BME280;26823;42.662;23.352;2023-07-22T10:59:52;94730.56;;;31.79;35.99
41078;BME280;26823;42.662;23.352;2023-07-22T11:02:28;94711.53;;;31.66;36.37
41078;BME280;26823;42.662;23.352;2023-07-22T11:04:56;94717.56;;;31.61;35.68
41078;BME280;26823;42.662;23.352;2023-07-22T11:07:34;94716.81;;;31.92;34.81
41078;BME280;26823;42.662;23.352;2023-07-22T11:10:19;94724.16;;;32.09;34.66
41078;BME280;26823;42.662;23.352;2023-07-22T11:12:45;94706.47;;;32.19;33.98
41078;BME280;26823;42.662;23.352;2023-07-22T11:15:11;94703.66;;;32.19;33.91
41078;BME280;26823;42.662;23.352;2023-07-22T11:17:37;94708.44;;;32.46;33.41
41078;BME280;26823;42.662;23.352;2023-07-22T11:20:03;94708.28;;;32.57;34.22
41078;BME280;26823;42.662;23.352;2023-07-22T11:22:29;94720.09;;;32.68;33.46
41078;BME280;26823;42.662;23.352;2023-07-22T11:24:55;94724.88;;;32.68;34.33
41078;BME280;26823;42.662;23.352;2023-07-22T11:27:21;94714.41;;;32.48;34.51
41078;BME280;26823;42.662;23.352;2023-07-22T11:29:48;94708.91;;;32.68;34.21
41078;BME280;26823;42.662;23.352;2023-07-22T11:32:18;94704.63;;;32.60;33.12
41078;BME280;26823;42.662;23.352;2023-07-22T11:34:44;94708.56;;;32.90;33.48
41078;BME280;26823;42.662;23.352;2023-07-22T11:37:10;94691.94;;;32.79;33.97
41078;BME280;26823;42.662;23.352;2023-07-22T11:39:36;94697.19;;;32.77;33.64
41078;BME280;26823;42.662;23.352;2023-07-22T11:42:03;94693.25;;;32.71;33.45
41078;BME280;26823;42.662;23.352;2023-07-22T11:44:29;94697.25;;;32.74;33.09
41078;BME280;26823;42.662;23.352;2023-07-22T11:47:05;94674.03;;;32.97;32.80
41078;BME280;26823;42.662;23.352;2023-07-22T11:49:37;94680.81;;;33.20;32.30
41078;BME280;26823;42.662;23.352;2023-07-22T11:54:31;94681.63;;;33.40;31.69
41078;BME280;26823;42.662;23.352;2023-07-22T11:56:57;94689.25;;;33.40;32.05
41078;BME280;26823;42.662;23.352;2023-07-22T11:59:34;94686.31;;;33.47;32.16
41078;BME280;26823;42.662;23.352;2023-07-22T12:02:01;94690.47;;;33.59;32.22
41078;BME280;26823;42.662;23.352;2023-07-22T12:04:30;94677.69;;;33.58;31.81
41078;BME280;26823;42.662;23.352;2023-07-22T12:06:55;94681.41;;;33.71;31.67
41078;BME280;26823;42.662;23.352;2023-07-22T12:09:21;94661.38;;;33.53;31.66
41078;BME280;26823;42.662;23.352;2023-07-22T12:11:46;94678.19;;;33.73;31.22
41078;BME280;26823;42.662;23.352;2023-07-22T12:14:14;94677.53;;;33.65;31.93
41078;BME280;26823;42.662;23.352;2023-07-22T12:16:41;94656.84;;;33.59;32.06
41078;BME280;26823;42.662;23.352;2023-07-22T12:19:08;94657.06;;;33.48;32.20
41078;BME280;26823;42.662;23.352;2023-07-22T12:21:33;94654.63;;;33.50;32.12
41078;BME280;26823;42.662;23.352;2023-07-22T12:23:59;94661.50;;;33.65;32.44
41078;BME280;26823;42.662;23.352;2023-07-22T12:26:25;94659.84;;;33.48;32.58
41078;BME280;26823;42.662;23.352;2023-07-22T12:28:50;94659.78;;;33.52;32.38
41078;BME280;26823;42.662;23.352;2023-07-22T12:31:15;94666.53;;;33.54;32.21
41078;BME280;26823;42.662;23.352;2023-07-22T12:33:41;94655.00;;;33.52;32.42
41078;BME280;26823;42.662;23.352;2023-07-22T12:36:07;94657.56;;;33.63;31.82
41078;BME280;26823;42.662;23.352;2023-07-22T12:38:32;94644.22;;;33.30;33.06
41078;BME280;26823;42.662;23.352;2023-07-22T12:40:58;94640.28;;;33.28;32.72
41078;BME280;26823;42.662;23.352;2023-07-22T12:43:23;94654.75;;;33.43;32.17
41078;BME280;26823;42.662;23.352;2023-07-22T12:45:49;94644.94;;;33.35;33.12
41078;BME280;26823;42.662;23.352;2023-07-22T12:48:15;94645.56;;;33.42;32.62
41078;BME280;26823;42.662;23.352;2023-07-22T12:50:40;94650.03;;;33.60;32.28
41078;BME280;26823;42.662;23.352;2023-07-22T12:53:06;94637.94;;;33.63;31.72